This is the latest recevied weather packets stored in our database for station/object NR5ON-13. If no packets are shown the sender has not sent any weather packets the latest 1 day(s).
| Time | Temp. | Humidity | Pressure | Rain* | Wind** | Luminosity | Snow |
|---|---|---|---|---|---|---|---|
| 1778099912 | 15° C | 36% | 1015.4 hPa | 0 mm | - | - | - |
| 1778098426 | 13.89° C | 40% | 1015.6 hPa | 0 mm | - | - | - |
| 1778096321 | 14.44° C | 42% | 1015.7 hPa | 0 mm | - | - | - |
| 1778095126 | 14.44° C | 42% | 1015.9 hPa | 0 mm | - | - | - |
| 1778094516 | 13.89° C | 43% | 1015.9 hPa | 0 mm | - | - | - |
| 1778093611 | 13.33° C | 45% | 1016 hPa | 0 mm | - | - | - |
| 1778093316 | 13.33° C | 46% | 1015.9 hPa | 0 mm | - | - | - |
| 1778090615 | 11.67° C | 50% | 1016.5 hPa | 0 mm | - | - | - |
| 1778090322 | 11.67° C | 53% | 1016.5 hPa | 0 mm | - | - | - |
| 1778090010 | 11.11° C | 53% | 1016.5 hPa | 0 mm | - | - | - |
| 1778088818 | 10° C | 56% | 1016.7 hPa | 0 mm | - | - | - |
| 1778088207 | 10.56° C | 57% | 1016.7 hPa | 0 mm | - | - | - |
| 1778087322 | 10° C | 58% | 1016.8 hPa | 0 mm | - | - | - |
| 1778086714 | 10.56° C | 60% | 1016.7 hPa | 0 mm | - | - | - |
| 1778086108 | 10° C | 59% | 1016.5 hPa | 0 mm | - | - | - |
| 1778085208 | 9.44° C | 65% | 1016.5 hPa | 0 mm | - | - | - |
| 1778084915 | 8.89° C | 64% | 1016.5 hPa | 0 mm | - | - | - |
| 1778084012 | 8.89° C | 66% | 1016.6 hPa | 0 mm | - | - | - |
| 1778083426 | 8.33° C | 68% | 1016.7 hPa | 0 mm | - | - | - |
| 1778079523 | 6.11° C | 76% | 1017 hPa | 0 mm | - | - | - |
| 1778079207 | 6.11° C | 77% | 1017 hPa | 0 mm | - | - | - |
| 1778078616 | 6.11° C | 77% | 1016.9 hPa | 0 mm | - | - | - |
| 1778078026 | 5° C | 82% | 1016.7 hPa | 0 mm | - | - | - |
| 1778077420 | 4.44° C | 82% | 1016.7 hPa | 0 mm | - | - | - |
| 1778075914 | 3.89° C | 85% | 1016.9 hPa | 0 mm | - | - | - |
* Rain latest hour (hover to see other rain measurements)
** Current wind speed in m/s (hover to see current wind gust speed)